createdAt,value
2022-11-20T03:10:56.287Z,100.00
2022-11-20T03:20:59.928Z,100.00
2022-11-20T03:30:59.003Z,100.00
2022-11-20T03:35:50.728Z,100.00
2022-11-20T03:40:42.468Z,100.00
2022-11-20T03:45:34.176Z,100.00
2022-11-20T03:50:25.875Z,100.00
2022-11-20T03:55:17.818Z,100.00
2022-11-20T04:00:10.449Z,100.00
2022-11-20T04:05:02.180Z,100.00
2022-11-20T04:09:53.935Z,100.00
2022-11-20T04:14:45.648Z,100.00
2022-11-20T04:19:37.417Z,100.00
2022-11-20T04:24:29.126Z,100.00
2022-11-20T04:29:21.221Z,100.00
2022-11-20T04:34:13.719Z,100.00
2022-11-20T04:39:07.592Z,100.00
2022-11-20T04:44:04.204Z,100.00
2022-11-20T04:48:56.900Z,100.00
2022-11-20T04:53:48.683Z,100.00
2022-11-20T04:58:41.572Z,100.00
2022-11-20T07:11:29.493Z,95.26
2022-11-20T07:57:58.318Z,94.02
2022-11-20T09:41:44.954Z,80.75
2022-11-20T10:02:55.495Z,79.80
2022-11-20T10:19:22.144Z,78.74
2022-11-20T11:49:14.172Z,82.34
2022-11-20T12:55:05.326Z,75.12
2022-11-20T13:22:00.264Z,72.79
2022-11-20T13:27:15.103Z,72.87
2022-11-20T13:43:25.003Z,75.60
2022-11-20T13:48:24.480Z,77.13
2022-11-20T13:53:51.138Z,77.62
2022-11-20T14:04:40.116Z,77.33
2022-11-20T14:09:36.426Z,76.97
2022-11-20T14:14:38.796Z,77.54
2022-11-20T14:19:36.033Z,78.35
2022-11-20T14:24:29.984Z,77.90
2022-11-20T14:39:57.444Z,79.61
2022-11-20T14:55:24.061Z,80.60
2022-11-20T15:00:15.798Z,80.17
2022-11-20T15:05:09.885Z,80.99
2022-11-20T15:10:12.580Z,80.89
2022-11-20T15:15:10.703Z,82.08
2022-11-20T15:20:12.830Z,82.40
2022-11-20T15:30:26.029Z,84.33
2022-11-20T15:35:23.065Z,85.60
2022-11-20T15:40:17.332Z,85.90
2022-11-20T15:50:26.616Z,87.54
2022-11-20T15:55:20.574Z,87.46
2022-11-20T16:00:19.329Z,88.23
2022-11-20T16:05:19.807Z,87.96
2022-11-20T16:10:12.999Z,88.86
2022-11-20T16:15:28.585Z,89.85
2022-11-20T16:20:20.885Z,89.83
2022-11-20T16:30:26.200Z,91.31
2022-11-20T16:35:18.400Z,92.33
2022-11-20T16:55:30.760Z,94.23
2022-11-20T17:00:22.833Z,94.50
2022-11-20T17:05:15.904Z,94.75
2022-11-20T17:15:18.256Z,95.69
2022-11-20T17:20:13.921Z,95.92
2022-11-20T17:25:08.709Z,96.16
2022-11-20T17:30:04.207Z,96.98
2022-11-20T17:34:57.396Z,97.41
2022-11-20T17:39:49.444Z,97.27
2022-11-20T17:44:42.878Z,97.93
2022-11-20T17:49:35.807Z,98.41
2022-11-20T17:54:35.130Z,97.97
2022-11-20T17:59:28.770Z,98.82
2022-11-20T18:04:22.043Z,99.35
2022-11-20T18:09:14.731Z,99.68
2022-11-20T18:14:29.733Z,100.00
2022-11-20T18:19:31.271Z,99.62
2022-11-20T18:24:24.439Z,100.00
2022-11-20T18:29:18.871Z,100.00
2022-11-20T18:34:15.307Z,100.00
2022-11-20T18:39:09.145Z,100.00
2022-11-20T18:44:30.826Z,100.00
2022-11-20T23:47:13.432Z,100.00
